sensor_id;sensor_type;location;lat;lon;timestamp;temperature;humidity
10149;DHT22;5115;50.920;6.376;2023-09-19T00:00:37;18.60;99.90
10149;DHT22;5115;50.920;6.376;2023-09-19T00:03:02;18.10;99.90
10149;DHT22;5115;50.920;6.376;2023-09-19T00:05:33;18.00;99.90
10149;DHT22;5115;50.920;6.376;2023-09-19T00:08:00;18.10;99.90
10149;DHT22;5115;50.920;6.376;2023-09-19T00:10:27;18.00;99.90
10149;DHT22;5115;50.920;6.376;2023-09-19T00:12:56;18.00;99.90
10149;DHT22;5115;50.920;6.376;2023-09-19T00:15:26;18.00;99.90
10149;DHT22;5115;50.920;6.376;2023-09-19T00:17:54;18.00;99.90
10149;DHT22;5115;50.920;6.376;2023-09-19T00:20:21;18.00;99.90
10149;DHT22;5115;50.920;6.376;2023-09-19T00:22:48;18.10;99.90
10149;DHT22;5115;50.920;6.376;2023-09-19T00:25:16;18.10;99.90
10149;DHT22;5115;50.920;6.376;2023-09-19T00:27:42;18.20;99.90
10149;DHT22;5115;50.920;6.376;2023-09-19T00:30:09;18.20;99.90
10149;DHT22;5115;50.920;6.376;2023-09-19T00:32:50;18.20;99.90
10149;DHT22;5115;50.920;6.376;2023-09-19T00:35:20;18.20;99.90
10149;DHT22;5115;50.920;6.376;2023-09-19T00:37:45;18.20;99.90
10149;DHT22;5115;50.920;6.376;2023-09-19T00:40:11;18.20;99.90
10149;DHT22;5115;50.920;6.376;2023-09-19T00:42:42;18.20;99.90
10149;DHT22;5115;50.920;6.376;2023-09-19T00:45:12;18.30;99.90
10149;DHT22;5115;50.920;6.376;2023-09-19T00:47:43;17.80;99.90
10149;DHT22;5115;50.920;6.376;2023-09-19T00:50:09;18.30;99.90
10149;DHT22;5115;50.920;6.376;2023-09-19T00:52:37;18.30;99.90
10149;DHT22;5115;50.920;6.376;2023-09-19T00:55:05;18.10;99.90
10149;DHT22;5115;50.920;6.376;2023-09-19T00:57:32;18.20;99.90
10149;DHT22;5115;50.920;6.376;2023-09-19T00:59:58;18.30;99.90
10149;DHT22;5115;50.920;6.376;2023-09-19T01:02:24;18.30;99.90
10149;DHT22;5115;50.920;6.376;2023-09-19T01:04:52;18.20;99.90
10149;DHT22;5115;50.920;6.376;2023-09-19T01:07:19;18.20;99.90
10149;DHT22;5115;50.920;6.376;2023-09-19T01:09:44;18.20;99.90
10149;DHT22;5115;50.920;6.376;2023-09-19T01:12:12;17.90;99.90
10149;DHT22;5115;50.920;6.376;2023-09-19T01:17:29;18.10;99.90
10149;DHT22;5115;50.920;6.376;2023-09-19T01:20:33;18.00;99.90
10149;DHT22;5115;50.920;6.376;2023-09-19T01:23:12;18.00;99.90
10149;DHT22;5115;50.920;6.376;2023-09-19T01:30:57;17.90;99.90
10149;DHT22;5115;50.920;6.376;2023-09-19T01:33:24;18.00;99.90
10149;DHT22;5115;50.920;6.376;2023-09-19T01:35:51;17.90;99.90
10149;DHT22;5115;50.920;6.376;2023-09-19T01:38:18;17.80;99.90
10149;DHT22;5115;50.920;6.376;2023-09-19T01:40:57;17.80;99.90
10149;DHT22;5115;50.920;6.376;2023-09-19T01:43:30;17.80;99.90
10149;DHT22;5115;50.920;6.376;2023-09-19T01:46:14;17.70;99.90
10149;DHT22;5115;50.920;6.376;2023-09-19T01:51:24;17.60;99.90
10149;DHT22;5115;50.920;6.376;2023-09-19T01:54:01;17.50;99.90
10149;DHT22;5115;50.920;6.376;2023-09-19T01:56:34;17.60;99.90
10149;DHT22;5115;50.920;6.376;2023-09-19T01:59:08;17.40;99.90
10149;DHT22;5115;50.920;6.376;2023-09-19T02:01:36;17.50;99.90
10149;DHT22;5115;50.920;6.376;2023-09-19T02:04:03;17.50;99.90
10149;DHT22;5115;50.920;6.376;2023-09-19T02:06:29;17.40;99.90
10149;DHT22;5115;50.920;6.376;2023-09-19T02:08:55;17.20;99.90
10149;DHT22;5115;50.920;6.376;2023-09-19T02:11:21;17.20;99.90
10149;DHT22;5115;50.920;6.376;2023-09-19T02:13:47;17.20;99.90
10149;DHT22;5115;50.920;6.376;2023-09-19T02:16:12;17.20;99.90
10149;DHT22;5115;50.920;6.376;2023-09-19T02:18:38;17.20;99.90
10149;DHT22;5115;50.920;6.376;2023-09-19T02:21:04;17.20;99.90
10149;DHT22;5115;50.920;6.376;2023-09-19T02:23:32;17.20;99.90
10149;DHT22;5115;50.920;6.376;2023-09-19T02:25:59;17.10;99.90
10149;DHT22;5115;50.920;6.376;2023-09-19T02:28:29;17.10;99.90
10149;DHT22;5115;50.920;6.376;2023-09-19T02:30:56;17.20;99.90
10149;DHT22;5115;50.920;6.376;2023-09-19T02:33:22;17.10;99.90
10149;DHT22;5115;50.920;6.376;2023-09-19T02:35:47;17.20;99.90
10149;DHT22;5115;50.920;6.376;2023-09-19T02:38:13;17.10;99.90
10149;DHT22;5115;50.920;6.376;2023-09-19T02:40:43;17.20;99.90
10149;DHT22;5115;50.920;6.376;2023-09-19T02:43:09;17.20;99.90
10149;DHT22;5115;50.920;6.376;2023-09-19T02:45:35;17.10;99.90
10149;DHT22;5115;50.920;6.376;2023-09-19T02:48:00;17.10;99.90
10149;DHT22;5115;50.920;6.376;2023-09-19T02:50:28;17.10;99.90
10149;DHT22;5115;50.920;6.376;2023-09-19T02:52:53;17.10;99.90
10149;DHT22;5115;50.920;6.376;2023-09-19T02:55:19;17.10;99.90
10149;DHT22;5115;50.920;6.376;2023-09-19T02:57:46;17.00;99.90
10149;DHT22;5115;50.920;6.376;2023-09-19T03:00:12;17.00;99.90
10149;DHT22;5115;50.920;6.376;2023-09-19T03:02:38;17.00;99.90
10149;DHT22;5115;50.920;6.376;2023-09-19T03:05:06;17.00;99.90
10149;DHT22;5115;50.920;6.376;2023-09-19T03:07:33;17.00;99.90
10149;DHT22;5115;50.920;6.376;2023-09-19T03:09:59;17.00;99.90
10149;DHT22;5115;50.920;6.376;2023-09-19T03:12:25;16.80;99.90
10149;DHT22;5115;50.920;6.376;2023-09-19T03:14:51;16.80;99.90
10149;DHT22;5115;50.920;6.376;2023-09-19T03:17:17;16.80;99.90
10149;DHT22;5115;50.920;6.376;2023-09-19T03:19:45;16.80;99.90
10149;DHT22;5115;50.920;6.376;2023-09-19T03:22:10;16.70;99.90
10149;DHT22;5115;50.920;6.376;2023-09-19T03:24:36;16.80;99.90
10149;DHT22;5115;50.920;6.376;2023-09-19T03:27:03;16.80;99.90
10149;DHT22;5115;50.920;6.376;2023-09-19T03:29:28;16.80;99.90
10149;DHT22;5115;50.920;6.376;2023-09-19T03:31:54;16.80;99.90
10149;DHT22;5115;50.920;6.376;2023-09-19T03:34:20;16.90;99.90
10149;DHT22;5115;50.920;6.376;2023-09-19T03:36:46;16.70;99.90
10149;DHT22;5115;50.920;6.376;2023-09-19T03:39:11;16.70;99.90
10149;DHT22;5115;50.920;6.376;2023-09-19T03:41:37;16.70;99.90
10149;DHT22;5115;50.920;6.376;2023-09-19T03:44:03;16.70;99.90
10149;DHT22;5115;50.920;6.376;2023-09-19T03:46:28;16.80;99.90
10149;DHT22;5115;50.920;6.376;2023-09-19T03:48:55;16.80;99.90
10149;DHT22;5115;50.920;6.376;2023-09-19T03:51:21;16.70;99.90
10149;DHT22;5115;50.920;6.376;2023-09-19T03:53:47;16.80;99.90
10149;DHT22;5115;50.920;6.376;2023-09-19T03:56:14;16.80;99.90
10149;DHT22;5115;50.920;6.376;2023-09-19T03:58:40;16.70;99.90
10149;DHT22;5115;50.920;6.376;2023-09-19T04:01:06;16.80;99.90
10149;DHT22;5115;50.920;6.376;2023-09-19T04:03:34;16.80;99.90
10149;DHT22;5115;50.920;6.376;2023-09-19T04:06:16;17.20;99.90
10149;DHT22;5115;50.920;6.376;2023-09-19T04:08:42;16.70;99.90
10149;DHT22;5115;50.920;6.376;2023-09-19T04:11:08;16.80;99.90
10149;DHT22;5115;50.920;6.376;2023-09-19T04:13:34;16.80;99.90
10149;DHT22;5115;50.920;6.376;2023-09-19T04:15:59;16.70;99.90
10149;DHT22;5115;50.920;6.376;2023-09-19T04:18:26;16.70;99.90
10149;DHT22;5115;50.920;6.376;2023-09-19T04:20:51;16.70;99.90
10149;DHT22;5115;50.920;6.376;2023-09-19T04:23:17;16.70;99.90
10149;DHT22;5115;50.920;6.376;2023-09-19T04:25:43;16.70;99.90
10149;DHT22;5115;50.920;6.376;2023-09-19T04:28:09;16.60;99.90
10149;DHT22;5115;50.920;6.376;2023-09-19T04:30:37;16.60;99.90
10149;DHT22;5115;50.920;6.376;2023-09-19T04:33:03;16.50;99.90
10149;DHT22;5115;50.920;6.376;2023-09-19T04:35:29;16.60;99.90
10149;DHT22;5115;50.920;6.376;2023-09-19T04:37:57;16.50;99.90
10149;DHT22;5115;50.920;6.376;2023-09-19T04:40:23;16.50;99.90
10149;DHT22;5115;50.920;6.376;2023-09-19T04:42:56;16.50;99.90
10149;DHT22;5115;50.920;6.376;2023-09-19T04:45:25;16.50;99.90
10149;DHT22;5115;50.920;6.376;2023-09-19T04:47:52;16.50;99.90
10149;DHT22;5115;50.920;6.376;2023-09-19T04:50:17;16.50;99.90
10149;DHT22;5115;50.920;6.376;2023-09-19T04:52:44;16.50;99.90
10149;DHT22;5115;50.920;6.376;2023-09-19T04:55:13;16.40;99.90
10149;DHT22;5115;50.920;6.376;2023-09-19T04:57:49;16.40;99.90
10149;DHT22;5115;50.920;6.376;2023-09-19T05:00:25;16.30;99.90
10149;DHT22;5115;50.920;6.376;2023-09-19T05:02:55;16.40;99.90
10149;DHT22;5115;50.920;6.376;2023-09-19T05:05:22;16.40;99.90
10149;DHT22;5115;50.920;6.376;2023-09-19T05:07:48;16.40;99.90
10149;DHT22;5115;50.920;6.376;2023-09-19T05:10:14;16.50;99.90
10149;DHT22;5115;50.920;6.376;2023-09-19T05:12:40;16.50;99.90
10149;DHT22;5115;50.920;6.376;2023-09-19T05:15:07;16.50;99.90
10149;DHT22;5115;50.920;6.376;2023-09-19T05:17:34;16.50;99.90
10149;DHT22;5115;50.920;6.376;2023-09-19T05:20:00;16.50;99.90
10149;DHT22;5115;50.920;6.376;2023-09-19T05:22:31;16.50;99.90
10149;DHT22;5115;50.920;6.376;2023-09-19T05:24:58;16.50;99.90
10149;DHT22;5115;50.920;6.376;2023-09-19T05:27:24;16.50;99.90
10149;DHT22;5115;50.920;6.376;2023-09-19T05:29:49;16.50;99.90
10149;DHT22;5115;50.920;6.376;2023-09-19T05:32:17;16.50;99.90
10149;DHT22;5115;50.920;6.376;2023-09-19T05:34:46;16.10;99.90
10149;DHT22;5115;50.920;6.376;2023-09-19T05:37:12;16.50;99.90
10149;DHT22;5115;50.920;6.376;2023-09-19T05:39:38;16.50;99.90
10149;DHT22;5115;50.920;6.376;2023-09-19T05:42:04;16.50;99.90
10149;DHT22;5115;50.920;6.376;2023-09-19T05:44:30;16.50;99.90
10149;DHT22;5115;50.920;6.376;2023-09-19T05:46:55;16.40;99.90
10149;DHT22;5115;50.920;6.376;2023-09-19T05:49:22;16.50;99.90
10149;DHT22;5115;50.920;6.376;2023-09-19T05:51:47;16.50;99.90
10149;DHT22;5115;50.920;6.376;2023-09-19T05:54:13;16.50;99.90
10149;DHT22;5115;50.920;6.376;2023-09-19T05:56:39;16.70;99.90
10149;DHT22;5115;50.920;6.376;2023-09-19T05:59:04;16.60;99.90
10149;DHT22;5115;50.920;6.376;2023-09-19T06:01:31;16.50;99.90
10149;DHT22;5115;50.920;6.376;2023-09-19T06:03:58;16.60;99.90
10149;DHT22;5115;50.920;6.376;2023-09-19T06:06:26;16.60;99.90
10149;DHT22;5115;50.920;6.376;2023-09-19T06:08:51;16.70;99.90
10149;DHT22;5115;50.920;6.376;2023-09-19T06:11:17;16.60;99.90
10149;DHT22;5115;50.920;6.376;2023-09-19T06:13:45;16.70;99.90
10149;DHT22;5115;50.920;6.376;2023-09-19T06:16:12;16.80;99.90
10149;DHT22;5115;50.920;6.376;2023-09-19T06:18:38;16.90;99.90
10149;DHT22;5115;50.920;6.376;2023-09-19T06:21:04;16.80;99.90
10149;DHT22;5115;50.920;6.376;2023-09-19T06:23:33;16.80;99.90
10149;DHT22;5115;50.920;6.376;2023-09-19T06:25:59;16.90;99.90
10149;DHT22;5115;50.920;6.376;2023-09-19T06:28:25;17.00;99.90
10149;DHT22;5115;50.920;6.376;2023-09-19T06:30:54;16.90;99.90
10149;DHT22;5115;50.920;6.376;2023-09-19T06:33:19;17.00;99.90
10149;DHT22;5115;50.920;6.376;2023-09-19T06:35:47;17.00;99.90
10149;DHT22;5115;50.920;6.376;2023-09-19T06:38:13;17.10;99.90
10149;DHT22;5115;50.920;6.376;2023-09-19T06:40:41;17.30;99.90
10149;DHT22;5115;50.920;6.376;2023-09-19T06:43:09;17.20;99.90
10149;DHT22;5115;50.920;6.376;2023-09-19T06:45:35;17.40;99.90
10149;DHT22;5115;50.920;6.376;2023-09-19T06:48:00;17.50;99.90
10149;DHT22;5115;50.920;6.376;2023-09-19T06:50:28;17.50;99.90
10149;DHT22;5115;50.920;6.376;2023-09-19T06:52:58;17.60;99.90
10149;DHT22;5115;50.920;6.376;2023-09-19T06:55:26;17.60;99.90
10149;DHT22;5115;50.920;6.376;2023-09-19T06:57:56;17.60;99.90
10149;DHT22;5115;50.920;6.376;2023-09-19T07:00:22;17.80;99.90
10149;DHT22;5115;50.920;6.376;2023-09-19T07:03:02;17.80;99.90
10149;DHT22;5115;50.920;6.376;2023-09-19T07:05:30;17.80;99.90
10149;DHT22;5115;50.920;6.376;2023-09-19T07:07:56;18.00;99.90
10149;DHT22;5115;50.920;6.376;2023-09-19T07:10:25;18.10;99.90
10149;DHT22;5115;50.920;6.376;2023-09-19T07:13:01;18.10;99.90
10149;DHT22;5115;50.920;6.376;2023-09-19T07:15:28;18.20;99.90
10149;DHT22;5115;50.920;6.376;2023-09-19T07:17:56;18.20;99.90
10149;DHT22;5115;50.920;6.376;2023-09-19T07:20:22;18.60;99.90
10149;DHT22;5115;50.920;6.376;2023-09-19T07:22:51;18.70;99.90
10149;DHT22;5115;50.920;6.376;2023-09-19T07:25:17;18.80;99.90
10149;DHT22;5115;50.920;6.376;2023-09-19T07:27:43;19.10;99.90
10149;DHT22;5115;50.920;6.376;2023-09-19T07:30:09;19.30;99.90
10149;DHT22;5115;50.920;6.376;2023-09-19T07:32:35;19.50;99.90
10149;DHT22;5115;50.920;6.376;2023-09-19T07:35:06;19.60;99.90
10149;DHT22;5115;50.920;6.376;2023-09-19T07:37:32;20.30;99.90
10149;DHT22;5115;50.920;6.376;2023-09-19T07:39:59;20.60;99.90
10149;DHT22;5115;50.920;6.376;2023-09-19T07:42:26;20.70;99.90
10149;DHT22;5115;50.920;6.376;2023-09-19T07:44:52;20.90;99.90
10149;DHT22;5115;50.920;6.376;2023-09-19T07:47:19;21.00;99.90
10149;DHT22;5115;50.920;6.376;2023-09-19T07:49:47;21.10;99.90
10149;DHT22;5115;50.920;6.376;2023-09-19T07:52:13;21.20;99.90
10149;DHT22;5115;50.920;6.376;2023-09-19T07:54:39;21.20;99.90
10149;DHT22;5115;50.920;6.376;2023-09-19T07:57:06;21.20;99.90
10149;DHT22;5115;50.920;6.376;2023-09-19T07:59:32;21.30;99.90
10149;DHT22;5115;50.920;6.376;2023-09-19T08:01:58;21.50;99.90
10149;DHT22;5115;50.920;6.376;2023-09-19T08:04:24;21.60;99.90
10149;DHT22;5115;50.920;6.376;2023-09-19T08:06:51;21.20;99.90
10149;DHT22;5115;50.920;6.376;2023-09-19T08:09:17;21.30;99.90
10149;DHT22;5115;50.920;6.376;2023-09-19T08:11:46;21.30;99.90
10149;DHT22;5115;50.920;6.376;2023-09-19T08:14:12;21.50;99.90
10149;DHT22;5115;50.920;6.376;2023-09-19T08:16:39;21.60;99.90
10149;DHT22;5115;50.920;6.376;2023-09-19T08:19:05;21.90;99.90
10149;DHT22;5115;50.920;6.376;2023-09-19T08:21:31;21.80;99.90
10149;DHT22;5115;50.920;6.376;2023-09-19T08:23:57;22.00;99.90
10149;DHT22;5115;50.920;6.376;2023-09-19T08:26:23;22.20;99.90
10149;DHT22;5115;50.920;6.376;2023-09-19T08:28:49;22.30;99.90
10149;DHT22;5115;50.920;6.376;2023-09-19T08:31:16;22.60;99.90
10149;DHT22;5115;50.920;6.376;2023-09-19T08:33:42;22.80;99.90
10149;DHT22;5115;50.920;6.376;2023-09-19T08:36:10;22.90;99.90
10149;DHT22;5115;50.920;6.376;2023-09-19T08:38:36;22.80;99.90
10149;DHT22;5115;50.920;6.376;2023-09-19T08:41:06;22.80;99.90
10149;DHT22;5115;50.920;6.376;2023-09-19T08:43:32;22.90;99.90
10149;DHT22;5115;50.920;6.376;2023-09-19T08:48:31;23.10;99.90
10149;DHT22;5115;50.920;6.376;2023-09-19T08:51:03;23.20;99.90
10149;DHT22;5115;50.920;6.376;2023-09-19T08:53:41;23.20;99.90
10149;DHT22;5115;50.920;6.376;2023-09-19T08:56:11;23.40;99.90
10149;DHT22;5115;50.920;6.376;2023-09-19T08:59:05;23.90;99.90
10149;DHT22;5115;50.920;6.376;2023-09-19T09:01:33;24.20;99.90
10149;DHT22;5115;50.920;6.376;2023-09-19T09:04:01;24.30;99.90
10149;DHT22;5115;50.920;6.376;2023-09-19T09:06:29;24.60;99.90
10149;DHT22;5115;50.920;6.376;2023-09-19T09:08:55;24.50;99.90
10149;DHT22;5115;50.920;6.376;2023-09-19T09:11:22;24.30;99.90
10149;DHT22;5115;50.920;6.376;2023-09-19T09:13:50;24.30;99.90
10149;DHT22;5115;50.920;6.376;2023-09-19T09:16:17;24.30;99.90
10149;DHT22;5115;50.920;6.376;2023-09-19T09:18:45;24.10;99.90
10149;DHT22;5115;50.920;6.376;2023-09-19T09:21:12;23.80;99.90
10149;DHT22;5115;50.920;6.376;2023-09-19T09:23:40;23.70;99.90
10149;DHT22;5115;50.920;6.376;2023-09-19T09:26:05;23.50;99.90
10149;DHT22;5115;50.920;6.376;2023-09-19T09:28:33;23.40;99.90
10149;DHT22;5115;50.920;6.376;2023-09-19T09:31:01;23.40;99.90
10149;DHT22;5115;50.920;6.376;2023-09-19T09:33:34;23.40;99.90
10149;DHT22;5115;50.920;6.376;2023-09-19T09:36:01;23.30;99.90
10149;DHT22;5115;50.920;6.376;2023-09-19T09:38:49;23.20;99.90
10149;DHT22;5115;50.920;6.376;2023-09-19T09:41:17;23.40;99.90
10149;DHT22;5115;50.920;6.376;2023-09-19T09:43:53;23.60;99.90
10149;DHT22;5115;50.920;6.376;2023-09-19T09:46:24;23.80;99.90
10149;DHT22;5115;50.920;6.376;2023-09-19T09:49:01;23.70;99.90
10149;DHT22;5115;50.920;6.376;2023-09-19T09:54:32;23.40;99.90
10149;DHT22;5115;50.920;6.376;2023-09-19T09:57:11;23.40;99.90
10149;DHT22;5115;50.920;6.376;2023-09-19T09:59:53;23.30;99.90
10149;DHT22;5115;50.920;6.376;2023-09-19T10:02:37;23.40;99.90
10149;DHT22;5115;50.920;6.376;2023-09-19T10:05:19;23.40;99.90
10149;DHT22;5115;50.920;6.376;2023-09-19T10:07:54;23.40;99.90
10149;DHT22;5115;50.920;6.376;2023-09-19T10:10:35;23.30;99.90
10149;DHT22;5115;50.920;6.376;2023-09-19T10:13:08;23.30;99.90
10149;DHT22;5115;50.920;6.376;2023-09-19T10:15:37;23.30;99.90
10149;DHT22;5115;50.920;6.376;2023-09-19T10:18:07;23.20;99.90
10149;DHT22;5115;50.920;6.376;2023-09-19T10:20:36;23.10;99.90
10149;DHT22;5115;50.920;6.376;2023-09-19T10:23:07;22.90;99.90
10149;DHT22;5115;50.920;6.376;2023-09-19T10:25:53;22.80;99.90
10149;DHT22;5115;50.920;6.376;2023-09-19T10:28:19;22.90;99.90
10149;DHT22;5115;50.920;6.376;2023-09-19T10:30:50;22.90;99.90
10149;DHT22;5115;50.920;6.376;2023-09-19T10:33:17;22.70;99.90
10149;DHT22;5115;50.920;6.376;2023-09-19T10:35:44;22.70;99.90
10149;DHT22;5115;50.920;6.376;2023-09-19T10:38:19;22.60;99.90
10149;DHT22;5115;50.920;6.376;2023-09-19T10:40:52;22.50;99.90
10149;DHT22;5115;50.920;6.376;2023-09-19T10:43:21;22.30;99.90
10149;DHT22;5115;50.920;6.376;2023-09-19T10:45:50;22.00;99.90
10149;DHT22;5115;50.920;6.376;2023-09-19T10:48:18;21.70;99.90
10149;DHT22;5115;50.920;6.376;2023-09-19T10:53:14;21.80;99.90
10149;DHT22;5115;50.920;6.376;2023-09-19T10:55:49;21.80;99.90
10149;DHT22;5115;50.920;6.376;2023-09-19T10:58:28;21.80;99.90
10149;DHT22;5115;50.920;6.376;2023-09-19T11:00:56;21.90;99.90
10149;DHT22;5115;50.920;6.376;2023-09-19T11:03:23;21.90;99.90
10149;DHT22;5115;50.920;6.376;2023-09-19T11:09:00;21.80;99.90
10149;DHT22;5115;50.920;6.376;2023-09-19T11:11:48;22.00;99.90
10149;DHT22;5115;50.920;6.376;2023-09-19T11:17:29;22.40;99.90
10149;DHT22;5115;50.920;6.376;2023-09-19T11:30:39;21.90;99.90
10149;DHT22;5115;50.920;6.376;2023-09-19T11:33:27;22.10;99.90
10149;DHT22;5115;50.920;6.376;2023-09-19T11:46:30;22.30;99.90
10149;DHT22;5115;50.920;6.376;2023-09-19T11:49:08;22.50;99.90
10149;DHT22;5115;50.920;6.376;2023-09-19T11:51:41;22.50;99.90
10149;DHT22;5115;50.920;6.376;2023-09-19T11:54:10;22.40;99.90
10149;DHT22;5115;50.920;6.376;2023-09-19T11:56:52;22.40;99.90
10149;DHT22;5115;50.920;6.376;2023-09-19T11:59:22;22.50;99.90
10149;DHT22;5115;50.920;6.376;2023-09-19T12:04:40;22.70;99.90
10149;DHT22;5115;50.920;6.376;2023-09-19T12:07:16;22.70;99.90
10149;DHT22;5115;50.920;6.376;2023-09-19T12:09:45;22.70;99.90
10149;DHT22;5115;50.920;6.376;2023-09-19T12:12:25;22.70;99.90
10149;DHT22;5115;50.920;6.376;2023-09-19T12:14:54;22.60;99.90
10149;DHT22;5115;50.920;6.376;2023-09-19T12:17:22;22.60;99.90
10149;DHT22;5115;50.920;6.376;2023-09-19T12:19:53;22.80;99.90
10149;DHT22;5115;50.920;6.376;2023-09-19T12:22:19;22.70;99.90
10149;DHT22;5115;50.920;6.376;2023-09-19T12:24:46;22.60;99.90
10149;DHT22;5115;50.920;6.376;2023-09-19T12:27:12;22.60;99.90
10149;DHT22;5115;50.920;6.376;2023-09-19T12:29:43;22.50;99.90
10149;DHT22;5115;50.920;6.376;2023-09-19T12:32:09;22.60;99.90
10149;DHT22;5115;50.920;6.376;2023-09-19T12:34:35;22.60;99.90
10149;DHT22;5115;50.920;6.376;2023-09-19T12:37:13;22.50;99.90
10149;DHT22;5115;50.920;6.376;2023-09-19T12:39:46;22.60;99.90
10149;DHT22;5115;50.920;6.376;2023-09-19T12:42:15;22.60;99.90
10149;DHT22;5115;50.920;6.376;2023-09-19T12:44:46;22.60;99.90
10149;DHT22;5115;50.920;6.376;2023-09-19T12:47:16;22.70;99.90
10149;DHT22;5115;50.920;6.376;2023-09-19T12:50:08;22.60;99.90
10149;DHT22;5115;50.920;6.376;2023-09-19T12:52:52;22.60;99.90
10149;DHT22;5115;50.920;6.376;2023-09-19T12:55:30;22.30;99.90
10149;DHT22;5115;50.920;6.376;2023-09-19T12:58:11;22.20;99.90
10149;DHT22;5115;50.920;6.376;2023-09-19T13:00:42;22.10;99.90
10149;DHT22;5115;50.920;6.376;2023-09-19T13:05:50;22.30;99.90
10149;DHT22;5115;50.920;6.376;2023-09-19T13:08:18;22.20;99.90
10149;DHT22;5115;50.920;6.376;2023-09-19T13:11:05;22.20;99.90
10149;DHT22;5115;50.920;6.376;2023-09-19T13:13:51;22.20;99.90
10149;DHT22;5115;50.920;6.376;2023-09-19T13:17:05;22.20;99.90
10149;DHT22;5115;50.920;6.376;2023-09-19T13:19:51;22.10;99.90
10149;DHT22;5115;50.920;6.376;2023-09-19T13:25:09;22.20;99.90
10149;DHT22;5115;50.920;6.376;2023-09-19T13:27:42;22.20;99.90
10149;DHT22;5115;50.920;6.376;2023-09-19T13:30:10;22.20;99.90
10149;DHT22;5115;50.920;6.376;2023-09-19T13:32:36;22.30;99.90
10149;DHT22;5115;50.920;6.376;2023-09-19T13:35:02;22.20;99.90
10149;DHT22;5115;50.920;6.376;2023-09-19T13:37:30;22.20;99.90
10149;DHT22;5115;50.920;6.376;2023-09-19T13:39:56;22.00;99.90
10149;DHT22;5115;50.920;6.376;2023-09-19T13:42:24;22.00;99.90
10149;DHT22;5115;50.920;6.376;2023-09-19T13:44:50;22.00;99.90
10149;DHT22;5115;50.920;6.376;2023-09-19T13:47:16;22.00;99.90
10149;DHT22;5115;50.920;6.376;2023-09-19T13:49:50;21.80;99.90
10149;DHT22;5115;50.920;6.376;2023-09-19T13:52:21;21.90;99.90
10149;DHT22;5115;50.920;6.376;2023-09-19T13:54:49;21.90;99.90
10149;DHT22;5115;50.920;6.376;2023-09-19T13:57:16;22.00;99.90
10149;DHT22;5115;50.920;6.376;2023-09-19T13:59:42;22.00;99.90
10149;DHT22;5115;50.920;6.376;2023-09-19T14:02:08;22.00;99.90
10149;DHT22;5115;50.920;6.376;2023-09-19T14:04:33;22.10;99.90
10149;DHT22;5115;50.920;6.376;2023-09-19T14:07:00;21.90;99.90
10149;DHT22;5115;50.920;6.376;2023-09-19T14:09:26;21.80;99.90
10149;DHT22;5115;50.920;6.376;2023-09-19T14:11:52;21.70;99.90
10149;DHT22;5115;50.920;6.376;2023-09-19T14:14:18;21.60;99.90
10149;DHT22;5115;50.920;6.376;2023-09-19T14:16:44;21.70;99.90
10149;DHT22;5115;50.920;6.376;2023-09-19T14:19:10;21.80;99.90
10149;DHT22;5115;50.920;6.376;2023-09-19T14:21:36;21.90;99.90
10149;DHT22;5115;50.920;6.376;2023-09-19T14:24:02;22.00;99.90
10149;DHT22;5115;50.920;6.376;2023-09-19T14:26:28;21.90;99.90
10149;DHT22;5115;50.920;6.376;2023-09-19T14:28:54;22.00;99.90
10149;DHT22;5115;50.920;6.376;2023-09-19T14:31:20;21.80;99.90
10149;DHT22;5115;50.920;6.376;2023-09-19T14:33:52;21.90;99.90
10149;DHT22;5115;50.920;6.376;2023-09-19T14:36:18;21.90;99.90
10149;DHT22;5115;50.920;6.376;2023-09-19T14:38:44;21.90;99.90
10149;DHT22;5115;50.920;6.376;2023-09-19T14:41:10;21.90;99.90
10149;DHT22;5115;50.920;6.376;2023-09-19T14:43:35;21.90;99.90
10149;DHT22;5115;50.920;6.376;2023-09-19T14:46:07;21.80;99.90
10149;DHT22;5115;50.920;6.376;2023-09-19T14:48:33;21.80;99.90
10149;DHT22;5115;50.920;6.376;2023-09-19T14:51:06;21.90;99.90
10149;DHT22;5115;50.920;6.376;2023-09-19T14:53:34;21.80;99.90
10149;DHT22;5115;50.920;6.376;2023-09-19T14:56:01;21.80;99.90
10149;DHT22;5115;50.920;6.376;2023-09-19T14:58:29;21.80;99.90
10149;DHT22;5115;50.920;6.376;2023-09-19T15:01:05;21.70;99.90
10149;DHT22;5115;50.920;6.376;2023-09-19T15:03:35;21.80;99.90
10149;DHT22;5115;50.920;6.376;2023-09-19T15:06:05;21.80;99.90
10149;DHT22;5115;50.920;6.376;2023-09-19T15:08:41;21.90;99.90
10149;DHT22;5115;50.920;6.376;2023-09-19T15:11:11;21.90;99.90
10149;DHT22;5115;50.920;6.376;2023-09-19T15:13:38;21.90;99.90
10149;DHT22;5115;50.920;6.376;2023-09-19T15:16:05;21.90;99.90
10149;DHT22;5115;50.920;6.376;2023-09-19T15:18:37;21.80;99.90
10149;DHT22;5115;50.920;6.376;2023-09-19T15:21:04;21.70;99.90
10149;DHT22;5115;50.920;6.376;2023-09-19T15:23:31;21.70;99.90
10149;DHT22;5115;50.920;6.376;2023-09-19T15:25:58;21.60;99.90
10149;DHT22;5115;50.920;6.376;2023-09-19T15:28:23;21.60;99.90
10149;DHT22;5115;50.920;6.376;2023-09-19T15:30:50;21.60;99.90
10149;DHT22;5115;50.920;6.376;2023-09-19T15:33:15;21.50;99.90
10149;DHT22;5115;50.920;6.376;2023-09-19T15:35:41;21.50;99.90
10149;DHT22;5115;50.920;6.376;2023-09-19T15:38:07;21.40;99.90
10149;DHT22;5115;50.920;6.376;2023-09-19T15:40:33;21.60;99.90
10149;DHT22;5115;50.920;6.376;2023-09-19T15:42:59;21.70;99.90
10149;DHT22;5115;50.920;6.376;2023-09-19T15:45:25;21.80;99.90
10149;DHT22;5115;50.920;6.376;2023-09-19T15:47:51;21.90;99.90
10149;DHT22;5115;50.920;6.376;2023-09-19T15:50:17;21.90;99.90
10149;DHT22;5115;50.920;6.376;2023-09-19T15:52:44;21.90;99.90
10149;DHT22;5115;50.920;6.376;2023-09-19T15:55:09;21.90;99.90
10149;DHT22;5115;50.920;6.376;2023-09-19T15:57:37;21.90;99.90
10149;DHT22;5115;50.920;6.376;2023-09-19T16:00:03;21.80;99.90
10149;DHT22;5115;50.920;6.376;2023-09-19T16:02:36;21.70;99.90
10149;DHT22;5115;50.920;6.376;2023-09-19T16:05:02;21.60;99.90
10149;DHT22;5115;50.920;6.376;2023-09-19T16:07:32;21.60;99.90
10149;DHT22;5115;50.920;6.376;2023-09-19T16:09:58;21.60;99.90
10149;DHT22;5115;50.920;6.376;2023-09-19T16:12:26;21.50;99.90
10149;DHT22;5115;50.920;6.376;2023-09-19T16:14:52;21.50;99.90
10149;DHT22;5115;50.920;6.376;2023-09-19T16:17:17;21.50;99.90
10149;DHT22;5115;50.920;6.376;2023-09-19T16:19:43;21.50;99.90
10149;DHT22;5115;50.920;6.376;2023-09-19T16:22:09;21.50;99.90
10149;DHT22;5115;50.920;6.376;2023-09-19T16:24:35;21.40;99.90
10149;DHT22;5115;50.920;6.376;2023-09-19T16:27:01;21.30;99.90
10149;DHT22;5115;50.920;6.376;2023-09-19T16:29:26;21.20;99.90
10149;DHT22;5115;50.920;6.376;2023-09-19T16:31:52;21.10;99.90
10149;DHT22;5115;50.920;6.376;2023-09-19T16:34:18;21.20;99.90
10149;DHT22;5115;50.920;6.376;2023-09-19T16:36:43;21.20;99.90
10149;DHT22;5115;50.920;6.376;2023-09-19T16:39:09;21.30;99.90
10149;DHT22;5115;50.920;6.376;2023-09-19T16:41:36;21.30;99.90
10149;DHT22;5115;50.920;6.376;2023-09-19T16:44:02;21.20;99.90
10149;DHT22;5115;50.920;6.376;2023-09-19T16:46:29;21.20;99.90
10149;DHT22;5115;50.920;6.376;2023-09-19T16:48:55;21.10;99.90